Time;durP1;ratioP1;P1;durP2;ratioP2;P2;SDS_P1;SDS_P2;PMS_P1;PMS_P2;Temp;Humidity;BMP_temperature;BMP_pressure;BME280_temperature;BME280_humidity;BME280_pressure;Samples;Min_cycle;Max_cycle;Signal;HPM_P1;HPM_P2
2022/08/31 00:04:37;;;;;;;9.57;5.90;;;20.10;20.80;;;;;;4996957;28;21146;-69
2022/08/31 00:07:04;;;;;;;10.20;6.27;;;20.10;20.10;;;;;;5030844;28;20466;-69
2022/08/31 00:09:32;;;;;;;8.70;5.97;;;20.10;20.30;;;;;;4984462;28;20475;-70
2022/08/31 00:11:59;;;;;;;9.77;6.13;;;20.00;20.20;;;;;;4982397;28;20464;-69
2022/08/31 00:14:26;;;;;;;9.53;6.30;;;20.10;20.10;;;;;;4984273;28;20632;-69
2022/08/31 00:16:53;;;;;;;7.47;5.30;;;20.00;20.00;;;;;;5014434;28;20457;-69
2022/08/31 00:19:20;;;;;;;8.17;5.73;;;20.00;20.00;;;;;;4984053;28;20460;-71
2022/08/31 00:21:47;;;;;;;10.00;5.60;;;20.00;20.00;;;;;;4985371;28;20468;-69
2022/08/31 00:24:14;;;;;;;12.20;5.47;;;19.90;20.00;;;;;;5005274;28;20482;-70
2022/08/31 00:26:42;;;;;;;10.00;6.33;;;20.00;20.00;;;;;;4994099;28;20976;-70
2022/08/31 00:29:10;;;;;;;7.17;5.50;;;20.00;20.00;;;;;;4983528;28;20457;-70
2022/08/31 00:31:36;;;;;;;8.30;5.50;;;19.90;20.00;;;;;;4983053;28;20474;-70
2022/08/31 00:34:03;;;;;;;9.80;6.00;;;19.90;20.00;;;;;;4984993;28;20480;-70
2022/08/31 00:36:30;;;;;;;17.20;7.50;;;19.90;20.30;;;;;;4979193;28;20802;-70
2022/08/31 00:38:57;;;;;;;11.10;6.47;;;19.80;20.40;;;;;;4980958;28;21337;-70
2022/08/31 00:41:27;;;;;;;10.70;7.10;;;19.80;20.90;;;;;;5033594;28;20452;-71
2022/08/31 00:43:57;;;;;;;9.90;5.93;;;19.70;21.30;;;;;;4983351;28;20487;-70
2022/08/31 00:46:26;;;;;;;13.50;7.03;;;19.60;21.60;;;;;;4999499;28;20464;-70
2022/08/31 00:49:00;;;;;;;10.03;6.90;;;19.60;22.00;;;;;;4982811;28;20465;-70
2022/08/31 00:51:29;;;;;;;11.73;7.10;;;19.50;22.50;;;;;;4976205;28;20998;-70
2022/08/31 00:53:57;;;;;;;17.50;7.97;;;19.50;22.10;;;;;;4978122;28;20453;-70
2022/08/31 00:56:24;;;;;;;10.87;7.10;;;19.50;22.60;;;;;;5001683;28;20462;-70
2022/08/31 00:58:51;;;;;;;12.30;7.17;;;19.40;22.50;;;;;;5023656;28;20886;-70
2022/08/31 01:01:20;;;;;;;12.73;8.40;;;19.40;22.50;;;;;;4976123;28;20511;-70
2022/08/31 01:03:48;;;;;;;12.20;7.87;;;19.40;22.70;;;;;;4982215;28;20486;-70
2022/08/31 01:06:15;;;;;;;12.27;7.17;;;19.40;22.70;;;;;;4978600;28;20467;-70
2022/08/31 01:08:43;;;;;;;13.50;8.27;;;19.40;22.60;;;;;;4978363;28;20534;-69
2022/08/31 01:11:10;;;;;;;9.73;7.63;;;19.40;22.60;;;;;;4994168;28;20452;-69
2022/08/31 01:13:37;;;;;;;10.67;7.67;;;19.40;22.70;;;;;;4994030;28;20465;-70
2022/08/31 01:16:10;;;;;;;11.70;8.00;;;19.40;23.00;;;;;;4990706;28;20488;-69
2022/08/31 01:18:39;;;;;;;11.30;6.87;;;19.30;23.30;;;;;;4980732;28;20460;-69
2022/08/31 01:21:19;;;;;;;9.17;6.50;;;19.30;23.60;;;;;;4977968;28;20925;-69
2022/08/31 01:23:47;;;;;;;9.43;6.07;;;19.30;24.10;;;;;;4979368;28;20480;-69
2022/08/31 01:26:18;;;;;;;7.43;6.00;;;19.30;23.80;;;;;;4978453;28;20465;-69
2022/08/31 01:28:45;;;;;;;9.13;6.57;;;19.20;23.50;;;;;;4976689;28;20464;-69
2022/08/31 01:31:18;;;;;;;9.57;7.20;;;19.20;23.50;;;;;;4988673;28;20484;-70
2022/08/31 01:33:45;;;;;;;11.10;8.00;;;19.20;23.90;;;;;;4977121;28;20457;-69
2022/08/31 01:36:13;;;;;;;12.90;8.63;;;19.10;23.90;;;;;;4980713;28;20476;-69
2022/08/31 01:38:40;;;;;;;9.30;6.90;;;19.10;24.70;;;;;;4972310;28;20461;-70
2022/08/31 01:41:08;;;;;;;10.23;6.83;;;19.10;25.00;;;;;;4988840;28;20458;-69
2022/08/31 01:43:35;;;;;;;11.10;7.33;;;19.00;25.30;;;;;;4993707;28;20484;-70
2022/08/31 01:46:03;;;;;;;9.30;6.80;;;18.90;25.30;;;;;;4975665;28;20486;-69
2022/08/31 01:48:31;;;;;;;10.63;6.93;;;18.90;25.50;;;;;;4996086;28;20465;-70
2022/08/31 01:50:58;;;;;;;13.10;7.63;;;18.90;25.50;;;;;;4982755;28;20468;-69
2022/08/31 01:53:25;;;;;;;17.20;9.40;;;18.90;25.90;;;;;;4981507;28;20783;-69
2022/08/31 01:55:52;;;;;;;14.23;7.77;;;18.80;26.20;;;;;;5002719;28;20525;-70
2022/08/31 01:58:20;;;;;;;10.10;7.03;;;18.80;26.30;;;;;;5015276;28;20457;-70
2022/08/31 02:00:46;;;;;;;8.80;6.30;;;18.80;26.70;;;;;;4970917;28;21043;-70
2022/08/31 02:03:13;;;;;;;10.53;6.53;;;18.80;27.10;;;;;;4980304;28;20461;-70
2022/08/31 02:05:40;;;;;;;12.90;7.20;;;18.70;27.70;;;;;;4978573;28;20495;-70
2022/08/31 02:08:09;;;;;;;9.97;6.97;;;18.70;28.20;;;;;;4978371;28;20466;-70
2022/08/31 02:10:37;;;;;;;11.20;7.80;;;18.70;29.00;;;;;;4984776;28;20472;-70
2022/08/31 02:13:04;;;;;;;10.40;8.00;;;18.60;29.00;;;;;;4974575;28;20470;-70
2022/08/31 02:15:33;;;;;;;12.13;7.50;;;18.60;29.20;;;;;;4978692;28;20499;-70
2022/08/31 02:18:00;;;;;;;13.87;7.20;;;18.60;29.30;;;;;;4981310;28;20453;-70
2022/08/31 02:20:27;;;;;;;10.93;7.43;;;18.50;29.70;;;;;;4982490;28;20888;-70
2022/08/31 02:22:54;;;;;;;9.80;8.10;;;18.50;29.80;;;;;;4973898;28;20470;-70
2022/08/31 02:25:21;;;;;;;15.20;7.63;;;18.60;29.60;;;;;;4992834;28;20489;-70
2022/08/31 02:27:47;;;;;;;11.50;8.23;;;18.60;29.60;;;;;;4980141;28;20461;-70
2022/08/31 02:30:16;;;;;;;15.23;7.97;;;18.50;29.60;;;;;;4977253;28;20475;-71
2022/08/31 02:32:45;;;;;;;11.43;8.77;;;18.60;29.50;;;;;;4980548;28;21026;-70
2022/08/31 02:35:12;;;;;;;10.97;7.90;;;18.50;29.30;;;;;;4982246;28;20995;-70
2022/08/31 02:37:39;;;;;;;13.00;9.20;;;18.60;29.50;;;;;;4989036;28;20476;-70
2022/08/31 02:40:09;;;;;;;12.23;9.00;;;18.60;29.70;;;;;;4985837;28;20468;-70
2022/08/31 02:42:36;;;;;;;14.40;9.00;;;18.70;29.80;;;;;;4996201;28;20459;-70
2022/08/31 02:45:04;;;;;;;10.67;7.87;;;18.70;30.20;;;;;;4977722;28;20480;-70
2022/08/31 02:47:30;;;;;;;12.40;8.00;;;18.70;30.20;;;;;;4978751;28;20491;-70
2022/08/31 02:50:01;;;;;;;11.20;7.50;;;18.70;29.70;;;;;;4985454;28;20476;-70
2022/08/31 02:52:28;;;;;;;9.80;7.27;;;18.70;29.30;;;;;;4982268;28;21322;-70
2022/08/31 02:54:55;;;;;;;12.73;8.20;;;18.70;29.60;;;;;;4976086;28;20487;-70
2022/08/31 02:57:21;;;;;;;10.00;7.30;;;18.70;29.60;;;;;;4982536;28;20457;-70
2022/08/31 02:59:48;;;;;;;16.73;8.27;;;18.70;29.60;;;;;;4986126;28;20456;-70
2022/08/31 03:02:16;;;;;;;12.53;9.00;;;18.70;29.50;;;;;;4984614;28;20484;-70
2022/08/31 03:04:43;;;;;;;12.27;8.27;;;18.70;29.40;;;;;;4981747;28;20484;-71
2022/08/31 03:07:11;;;;;;;12.37;8.00;;;18.70;29.40;;;;;;4982052;28;20460;-70
2022/08/31 03:09:38;;;;;;;13.83;8.70;;;18.70;29.40;;;;;;4992476;28;20457;-70
2022/08/31 03:12:05;;;;;;;12.13;8.93;;;18.70;29.20;;;;;;4983539;28;20507;-70
2022/08/31 03:14:31;;;;;;;9.33;7.60;;;18.70;29.30;;;;;;4983730;28;20473;-70
2022/08/31 03:16:58;;;;;;;13.50;7.80;;;18.70;29.20;;;;;;4984599;28;20457;-70
2022/08/31 03:19:25;;;;;;;13.13;8.57;;;18.70;29.30;;;;;;4983264;28;20458;-70
2022/08/31 03:21:52;;;;;;;12.30;8.20;;;18.70;29.40;;;;;;4979079;28;20463;-70
2022/08/31 03:24:21;;;;;;;12.13;9.00;;;18.70;29.60;;;;;;4983245;28;20481;-70
2022/08/31 03:26:48;;;;;;;14.63;9.30;;;18.70;29.80;;;;;;4979900;28;20466;-70
2022/08/31 03:29:15;;;;;;;13.27;9.53;;;18.70;30.10;;;;;;4983081;28;20460;-70
2022/08/31 03:31:42;;;;;;;11.90;7.27;;;18.80;30.80;;;;;;4982657;28;20485;-70
2022/08/31 03:34:09;;;;;;;10.90;8.37;;;18.80;31.00;;;;;;4981777;28;21027;-70
2022/08/31 03:36:36;;;;;;;13.83;9.50;;;18.90;30.90;;;;;;4974819;28;20876;-70
2022/08/31 03:39:03;;;;;;;10.23;7.77;;;18.90;30.40;;;;;;4982999;28;20829;-70
2022/08/31 03:41:31;;;;;;;15.17;9.47;;;18.90;30.50;;;;;;4983264;28;20460;-70
2022/08/31 03:44:00;;;;;;;11.90;8.60;;;18.90;30.40;;;;;;4982880;28;20468;-70
2022/08/31 03:46:27;;;;;;;13.23;8.53;;;19.00;30.30;;;;;;4985103;28;20457;-70
2022/08/31 03:48:54;;;;;;;10.50;8.10;;;19.00;30.20;;;;;;4981555;28;20547;-70
2022/08/31 03:51:21;;;;;;;14.10;9.53;;;19.00;30.20;;;;;;4984869;28;20468;-70
2022/08/31 03:53:48;;;;;;;12.20;9.37;;;19.00;30.30;;;;;;4983475;28;20457;-71
2022/08/31 03:56:15;;;;;;;12.23;9.20;;;19.00;30.20;;;;;;4980668;28;20454;-70
2022/08/31 03:58:43;;;;;;;11.23;10.03;;;19.00;30.40;;;;;;4981068;28;20461;-71
2022/08/31 04:01:11;;;;;;;17.23;9.97;;;19.00;30.30;;;;;;4972743;28;20505;-71
2022/08/31 04:03:38;;;;;;;18.93;9.63;;;19.00;30.40;;;;;;4975690;28;20460;-71
2022/08/31 04:06:09;;;;;;;10.67;8.47;;;19.00;30.40;;;;;;4976064;28;20558;-70
2022/08/31 04:08:36;;;;;;;14.83;10.47;;;19.00;30.40;;;;;;4981712;28;20468;-72
2022/08/31 04:11:08;;;;;;;12.53;9.47;;;19.00;30.50;;;;;;4990299;28;20472;-69
2022/08/31 04:13:36;;;;;;;10.77;9.20;;;19.00;30.70;;;;;;4985817;28;21312;-69
2022/08/31 04:16:10;;;;;;;13.50;9.27;;;19.00;30.70;;;;;;4984363;28;20486;-69
2022/08/31 04:18:37;;;;;;;14.67;8.70;;;19.00;31.20;;;;;;4973428;28;20559;-70
2022/08/31 04:21:05;;;;;;;11.90;8.80;;;19.00;31.10;;;;;;4982141;28;20472;-70
2022/08/31 04:23:32;;;;;;;11.90;9.87;;;19.00;31.30;;;;;;4976200;28;20535;-74
2022/08/31 04:25:59;;;;;;;15.07;9.67;;;19.00;31.20;;;;;;4979692;28;20492;-69
2022/08/31 04:28:25;;;;;;;14.70;9.07;;;19.00;31.20;;;;;;4978979;28;20464;-69
2022/08/31 04:30:52;;;;;;;12.10;8.97;;;19.00;31.10;;;;;;4979793;28;20473;-76
2022/08/31 04:33:20;;;;;;;13.43;9.70;;;19.00;31.30;;;;;;4975479;28;20496;-74
2022/08/31 04:35:47;;;;;;;14.87;10.23;;;19.00;31.70;;;;;;4981000;28;20489;-75
2022/08/31 04:38:14;;;;;;;14.37;11.17;;;19.00;31.70;;;;;;4979714;28;20467;-74
2022/08/31 04:40:42;;;;;;;10.60;9.33;;;19.00;31.80;;;;;;4980242;28;20465;-74
2022/08/31 04:43:09;;;;;;;14.90;10.10;;;19.10;31.50;;;;;;4973745;28;20488;-71
2022/08/31 04:45:41;;;;;;;14.30;10.50;;;19.10;30.90;;;;;;4977753;28;20495;-73
2022/08/31 04:48:08;;;;;;;13.60;9.90;;;19.10;30.90;;;;;;4981551;28;20831;-72
2022/08/31 04:50:36;;;;;;;15.17;10.00;;;19.10;31.10;;;;;;4979434;28;20473;-74
2022/08/31 04:53:03;;;;;;;12.67;9.83;;;19.10;31.00;;;;;;5007951;22;20490;-73
2022/08/31 04:55:29;;;;;;;16.20;10.90;;;19.20;31.00;;;;;;5062487;28;20945;-73
2022/08/31 04:57:56;;;;;;;13.13;10.10;;;19.20;31.20;;;;;;5062349;28;20465;-73
2022/08/31 05:00:23;;;;;;;11.50;9.27;;;19.10;31.20;;;;;;5052841;28;20563;-74
2022/08/31 05:02:52;;;;;;;13.90;10.37;;;19.10;31.00;;;;;;4957137;28;20485;-73
2022/08/31 05:05:18;;;;;;;13.17;9.80;;;19.20;31.20;;;;;;4945851;28;21033;-72
2022/08/31 05:07:47;;;;;;;12.90;9.57;;;19.20;31.40;;;;;;4941930;28;20460;-73
2022/08/31 05:10:13;;;;;;;17.80;11.53;;;19.20;31.80;;;;;;4953750;28;20459;-73
2022/08/31 05:12:40;;;;;;;13.50;11.03;;;19.20;32.40;;;;;;4952958;28;20527;-73
2022/08/31 05:15:07;;;;;;;12.60;10.37;;;19.20;32.40;;;;;;4942830;28;20458;-74
2022/08/31 05:17:34;;;;;;;13.83;10.80;;;19.20;32.60;;;;;;4949658;28;20470;-75
2022/08/31 05:20:01;;;;;;;13.70;10.00;;;19.20;32.70;;;;;;4946755;28;20458;-74
2022/08/31 05:22:29;;;;;;;12.90;9.50;;;19.20;32.70;;;;;;4945861;28;20493;-71
2022/08/31 05:24:57;;;;;;;13.23;9.70;;;19.30;33.30;;;;;;4949670;28;20480;-73
2022/08/31 05:27:24;;;;;;;14.47;9.27;;;19.30;32.80;;;;;;4941739;28;20469;-74
2022/08/31 05:29:50;;;;;;;12.30;9.07;;;19.30;32.50;;;;;;4948603;28;20465;-73
2022/08/31 05:32:17;;;;;;;12.60;9.50;;;19.40;33.00;;;;;;4957177;28;20500;-73
2022/08/31 05:34:44;;;;;;;11.50;9.60;;;19.40;32.80;;;;;;4951390;28;20466;-72
2022/08/31 05:37:10;;;;;;;12.70;9.47;;;19.40;33.70;;;;;;4958609;28;20458;-73
2022/08/31 05:39:37;;;;;;;11.37;9.60;;;19.40;33.60;;;;;;4953776;28;20474;-72
2022/08/31 05:42:07;;;;;;;13.93;10.50;;;19.40;33.70;;;;;;4940983;28;20454;-72
2022/08/31 05:44:34;;;;;;;14.40;10.43;;;19.40;33.80;;;;;;4952095;28;20877;-72
2022/08/31 05:47:00;;;;;;;10.77;9.37;;;19.40;34.00;;;;;;4944554;28;20470;-73
2022/08/31 05:49:27;;;;;;;13.07;9.30;;;19.30;34.40;;;;;;4953866;28;22566;-74
2022/08/31 05:51:55;;;;;;;13.87;8.90;;;19.30;33.90;;;;;;4951182;28;20470;-72
2022/08/31 05:54:22;;;;;;;13.47;8.67;;;19.40;33.90;;;;;;4968524;28;20517;-74
2022/08/31 05:56:48;;;;;;;13.93;10.60;;;19.30;33.90;;;;;;4969967;28;20462;-73
2022/08/31 05:59:17;;;;;;;11.33;9.20;;;19.30;34.20;;;;;;4973929;28;20500;-73
2022/08/31 06:01:45;;;;;;;11.50;9.10;;;19.30;34.50;;;;;;5020433;22;20602;-74
2022/08/31 06:04:12;;;;;;;11.13;9.47;;;19.30;34.70;;;;;;5041866;28;20461;-73
2022/08/31 06:06:39;;;;;;;13.40;9.40;;;19.30;34.70;;;;;;5044715;28;20490;-73
2022/08/31 06:09:07;;;;;;;15.30;10.23;;;19.30;35.40;;;;;;5046483;28;20465;-75
2022/08/31 06:11:37;;;;;;;12.90;9.60;;;19.30;35.40;;;;;;5046223;28;20477;-74
2022/08/31 06:14:05;;;;;;;14.97;10.17;;;19.30;35.30;;;;;;5047679;28;20457;-74
2022/08/31 06:16:34;;;;;;;12.90;9.43;;;19.30;35.60;;;;;;5046123;28;20458;-74
2022/08/31 06:19:04;;;;;;;12.27;9.80;;;19.30;35.40;;;;;;5047324;28;20531;-74
2022/08/31 06:21:34;;;;;;;13.37;10.37;;;19.30;35.70;;;;;;5049506;28;20517;-74
2022/08/31 06:24:03;;;;;;;10.73;8.90;;;19.30;35.80;;;;;;5048626;28;20837;-74
2022/08/31 06:26:33;;;;;;;13.40;10.90;;;19.30;35.90;;;;;;5048096;28;20559;-73
2022/08/31 06:29:02;;;;;;;14.00;10.90;;;19.30;36.20;;;;;;5047246;28;20493;-73
2022/08/31 06:31:31;;;;;;;12.53;10.67;;;19.30;36.10;;;;;;4991375;28;20494;-74
2022/08/31 06:34:00;;;;;;;13.53;10.47;;;19.30;36.10;;;;;;4957389;28;21196;-76
2022/08/31 06:36:29;;;;;;;13.43;9.80;;;19.30;36.10;;;;;;4943771;28;20835;-74
2022/08/31 06:38:59;;;;;;;11.80;10.00;;;19.40;36.20;;;;;;4944493;28;20502;-74
2022/08/31 06:41:28;;;;;;;15.00;10.47;;;19.40;36.00;;;;;;4945018;28;20483;-75
2022/08/31 06:43:55;;;;;;;17.30;9.57;;;19.40;35.80;;;;;;4948683;28;20462;-75
2022/08/31 06:46:23;;;;;;;14.27;9.90;;;19.40;35.60;;;;;;4943193;28;20482;-74
2022/08/31 06:48:53;;;;;;;12.23;10.33;;;19.50;35.60;;;;;;4944497;28;20506;-75
2022/08/31 06:51:21;;;;;;;10.63;8.70;;;19.50;35.30;;;;;;4943893;28;20486;-73
2022/08/31 06:53:48;;;;;;;13.67;9.10;;;19.60;35.40;;;;;;4946768;28;20985;-71
2022/08/31 06:56:16;;;;;;;13.40;9.50;;;19.60;35.00;;;;;;4954955;28;20462;-74
2022/08/31 06:58:43;;;;;;;12.37;9.17;;;19.70;34.90;;;;;;4964389;28;20479;-75
2022/08/31 07:01:12;;;;;;;11.60;9.50;;;19.70;34.90;;;;;;4953004;28;20490;-71
2022/08/31 07:03:42;;;;;;;14.93;9.67;;;19.80;34.80;;;;;;4965439;28;20473;-72
2022/08/31 07:06:13;;;;;;;13.60;9.43;;;19.80;34.70;;;;;;4970195;28;20567;-73
2022/08/31 07:08:43;;;;;;;13.80;9.63;;;19.90;34.60;;;;;;4966052;28;21966;-73
2022/08/31 07:11:14;;;;;;;12.23;9.80;;;19.90;34.50;;;;;;4968482;28;20477;-72
2022/08/31 07:13:42;;;;;;;15.07;8.80;;;19.90;34.40;;;;;;4968308;28;20453;-72
2022/08/31 07:16:11;;;;;;;10.60;8.57;;;20.00;34.10;;;;;;4966607;28;21152;-71
2022/08/31 07:18:38;;;;;;;12.00;9.50;;;20.10;34.10;;;;;;4967413;28;20650;-72
2022/08/31 07:21:10;;;;;;;16.43;9.57;;;20.20;33.60;;;;;;4965262;28;20485;-72
2022/08/31 07:23:38;;;;;;;12.03;9.10;;;20.20;33.50;;;;;;4965169;28;20968;-73
2022/08/31 07:26:07;;;;;;;11.57;9.03;;;20.30;33.50;;;;;;4962054;28;20482;-73
2022/08/31 07:28:35;;;;;;;11.83;9.57;;;20.40;33.10;;;;;;4964992;28;20468;-71
2022/08/31 07:31:04;;;;;;;13.00;9.00;;;20.50;32.80;;;;;;4964492;28;20501;-73
2022/08/31 07:33:37;;;;;;;12.63;10.07;;;20.50;32.70;;;;;;4964790;28;20570;-74
2022/08/31 07:36:05;;;;;;;13.17;9.93;;;20.60;32.40;;;;;;4985670;28;20449;-73
2022/08/31 07:44:02;;;;;;;12.37;9.33;;;20.90;31.50;;;;;;4963239;28;20453;-75
2022/08/31 07:46:30;;;;;;;11.93;8.90;;;20.90;31.30;;;;;;4964723;28;20481;-74
2022/08/31 07:48:57;;;;;;;12.47;9.50;;;21.00;31.40;;;;;;4966416;28;20574;-74
2022/08/31 07:51:25;;;;;;;14.03;10.20;;;21.10;31.10;;;;;;4965329;28;20477;-74
2022/08/31 07:53:52;;;;;;;13.17;10.57;;;21.30;30.40;;;;;;4964414;28;20470;-73
2022/08/31 07:56:22;;;;;;;11.90;9.27;;;21.50;29.90;;;;;;4964312;28;20462;-73
2022/08/31 07:58:49;;;;;;;12.00;10.17;;;21.80;29.80;;;;;;4964249;28;20466;-73
2022/08/31 08:01:16;;;;;;;13.13;8.93;;;22.10;28.90;;;;;;4962502;28;20861;-71
2022/08/31 08:03:44;;;;;;;11.23;9.17;;;22.30;28.30;;;;;;4962237;28;20473;-71
2022/08/31 08:06:13;;;;;;;11.90;9.80;;;22.60;27.50;;;;;;4961962;28;20485;-71
2022/08/31 08:08:41;;;;;;;14.10;10.53;;;22.60;26.80;;;;;;4965494;28;20462;-70
2022/08/31 08:11:08;;;;;;;10.83;9.33;;;22.60;26.20;;;;;;4964491;28;20489;-74
2022/08/31 08:13:37;;;;;;;12.80;9.50;;;22.60;26.10;;;;;;4962830;28;21078;-74
2022/08/31 08:16:03;;;;;;;13.73;10.80;;;22.60;25.90;;;;;;4965350;28;20470;-71
2022/08/31 08:18:30;;;;;;;11.60;9.50;;;22.60;25.90;;;;;;4965013;28;20866;-72
2022/08/31 08:20:57;;;;;;;13.00;9.67;;;22.70;25.80;;;;;;4962769;28;20484;-77
2022/08/31 08:23:24;;;;;;;10.07;8.93;;;22.80;25.30;;;;;;4964796;28;20465;-74
2022/08/31 08:25:51;;;;;;;11.37;9.10;;;22.80;25.10;;;;;;4974019;28;20477;-72
2022/08/31 08:28:21;;;;;;;11.67;9.23;;;22.70;25.10;;;;;;4963980;28;20462;-73
2022/08/31 08:30:53;;;;;;;12.67;9.37;;;22.70;25.20;;;;;;4964574;28;20474;-76
2022/08/31 08:33:20;;;;;;;11.77;9.40;;;22.50;25.40;;;;;;4963251;28;20465;-74
2022/08/31 08:35:55;;;;;;;12.57;10.20;;;22.50;25.70;;;;;;4964653;28;20457;-70
2022/08/31 08:38:22;;;;;;;12.97;10.20;;;22.40;26.10;;;;;;4962723;28;20989;-70
2022/08/31 08:40:50;;;;;;;12.60;10.00;;;22.30;26.20;;;;;;4965028;28;20462;-69
2022/08/31 08:43:19;;;;;;;13.20;11.00;;;22.20;26.10;;;;;;4965509;28;20472;-73
2022/08/31 08:45:51;;;;;;;14.37;11.47;;;22.20;26.40;;;;;;4963316;28;20492;-71
2022/08/31 08:48:23;;;;;;;12.50;9.63;;;22.10;26.60;;;;;;4966780;28;20548;-71
2022/08/31 08:50:51;;;;;;;13.30;10.43;;;22.10;26.70;;;;;;4965383;28;20465;-72
2022/08/31 08:53:24;;;;;;;14.80;10.67;;;22.10;26.70;;;;;;4967362;28;20812;-71
2022/08/31 08:55:51;;;;;;;12.07;9.50;;;22.10;27.00;;;;;;4964924;28;20820;-74
2022/08/31 08:58:18;;;;;;;11.80;10.57;;;22.20;26.80;;;;;;4966260;28;20484;-72
2022/08/31 09:00:51;;;;;;;13.90;10.97;;;22.20;26.90;;;;;;4965761;28;20470;-72
2022/08/31 09:03:29;;;;;;;12.73;10.40;;;22.30;26.30;;;;;;4962351;28;20466;-70
2022/08/31 09:06:06;;;;;;;13.20;10.20;;;22.40;26.10;;;;;;4962943;28;20481;-71
2022/08/31 09:08:53;;;;;;;13.07;10.00;;;22.40;25.80;;;;;;4970800;28;20497;-71
2022/08/31 09:11:26;;;;;;;13.30;10.37;;;22.50;25.70;;;;;;4971853;28;20492;-72
2022/08/31 09:14:18;;;;;;;11.67;10.47;;;22.50;25.10;;;;;;4963824;28;20461;-71
2022/08/31 09:16:55;;;;;;;13.33;10.90;;;22.60;24.60;;;;;;4962711;28;20833;-71
2022/08/31 09:19:21;;;;;;;12.67;9.57;;;22.60;24.50;;;;;;4964291;28;20556;-71
2022/08/31 09:21:51;;;;;;;11.40;9.97;;;22.60;24.40;;;;;;4964837;28;20485;-70
2022/08/31 09:24:19;;;;;;;13.70;10.17;;;22.60;24.60;;;;;;4968951;28;20469;-70
2022/08/31 09:26:54;;;;;;;13.20;10.63;;;22.50;24.80;;;;;;4963793;28;20482;-72
2022/08/31 09:29:23;;;;;;;16.80;11.17;;;22.50;24.90;;;;;;4963524;28;20867;-70
2022/08/31 09:32:00;;;;;;;14.27;11.57;;;22.50;25.10;;;;;;4964104;28;20478;-76
2022/08/31 09:34:30;;;;;;;14.00;10.60;;;22.40;25.30;;;;;;4965732;28;20466;-69
2022/08/31 09:37:15;;;;;;;11.40;10.20;;;22.40;25.30;;;;;;4965891;28;20536;-65
2022/08/31 09:39:46;;;;;;;12.13;10.40;;;22.50;25.30;;;;;;4967600;28;20480;-69
2022/08/31 09:42:27;;;;;;;14.37;11.53;;;22.50;25.10;;;;;;4963985;28;20552;-70
2022/08/31 09:44:57;;;;;;;11.77;10.30;;;22.50;25.30;;;;;;4963016;28;20961;-69
2022/08/31 09:47:47;;;;;;;11.23;9.43;;;22.40;25.10;;;;;;4960698;28;20504;-70
2022/08/31 09:50:30;;;;;;;13.47;11.00;;;22.40;25.30;;;;;;4964634;28;20828;-70
2022/08/31 09:56:12;;;;;;;13.37;10.30;;;22.20;26.40;;;;;;4963153;28;20552;-69
2022/08/31 09:58:45;;;;;;;13.63;11.53;;;22.10;26.60;;;;;;4962336;28;20482;-68
2022/08/31 10:01:16;;;;;;;16.30;11.37;;;22.10;27.20;;;;;;4962253;28;21149;-69
2022/08/31 10:03:46;;;;;;;13.03;11.10;;;22.00;27.70;;;;;;4962117;28;20502;-68
2022/08/31 10:06:36;;;;;;;17.37;12.60;;;22.00;28.00;;;;;;4965269;28;20489;-68
2022/08/31 10:09:07;;;;;;;19.80;11.73;;;21.90;28.70;;;;;;4966179;28;20465;-75
2022/08/31 10:11:35;;;;;;;14.70;11.20;;;21.80;29.00;;;;;;4968288;28;20863;-74
2022/08/31 10:14:13;;;;;;;14.87;11.60;;;21.80;29.20;;;;;;4965402;28;20469;-75
2022/08/31 10:16:46;;;;;;;10.63;9.47;;;21.80;29.00;;;;;;4966480;28;20507;-76
2022/08/31 10:19:18;;;;;;;13.93;10.33;;;21.80;28.90;;;;;;4964423;28;20930;-74
2022/08/31 10:21:52;;;;;;;12.20;10.90;;;21.70;29.20;;;;;;4963859;28;20485;-76
2022/08/31 10:24:32;;;;;;;12.83;10.27;;;21.70;29.50;;;;;;4964977;28;20461;-72
2022/08/31 10:27:13;;;;;;;16.27;11.03;;;21.70;29.80;;;;;;4964945;28;20478;-74
2022/08/31 10:29:47;;;;;;;12.00;10.70;;;21.70;30.20;;;;;;4964292;28;20465;-73
2022/08/31 10:32:23;;;;;;;16.80;12.57;;;21.70;30.10;;;;;;4966756;28;21109;-71
2022/08/31 10:35:04;;;;;;;12.97;11.30;;;21.70;30.60;;;;;;4965839;28;20473;-74
2022/08/31 10:37:42;;;;;;;13.70;11.17;;;21.70;31.10;;;;;;4968008;28;20868;-70
2022/08/31 10:40:14;;;;;;;13.17;11.20;;;21.80;30.90;;;;;;4964827;28;20820;-74
2022/08/31 10:42:47;;;;;;;15.43;11.20;;;21.90;30.80;;;;;;4965713;28;20493;-72
2022/08/31 10:45:17;;;;;;;14.03;11.00;;;22.00;30.50;;;;;;4966394;28;20890;-71
2022/08/31 10:47:46;;;;;;;13.73;10.60;;;22.00;29.90;;;;;;4966517;28;21023;-75
2022/08/31 10:50:22;;;;;;;11.97;10.67;;;22.10;29.90;;;;;;4959738;28;20471;-74
2022/08/31 10:52:57;;;;;;;15.67;11.53;;;22.30;29.50;;;;;;4965214;28;21083;-75
2022/08/31 10:55:31;;;;;;;13.67;11.40;;;22.40;29.60;;;;;;4965663;28;20453;-75
2022/08/31 10:58:05;;;;;;;11.77;10.33;;;22.50;29.40;;;;;;4967214;28;20874;-74
2022/08/31 11:00:45;;;;;;;13.63;11.60;;;22.50;29.30;;;;;;4965792;28;21087;-76
2022/08/31 11:03:17;;;;;;;15.13;11.40;;;22.60;28.80;;;;;;4966797;28;20462;-74
2022/08/31 11:05:51;;;;;;;13.00;10.93;;;22.70;28.50;;;;;;4966919;28;20496;-74
2022/08/31 11:08:41;;;;;;;12.67;10.50;;;22.70;28.30;;;;;;4967462;28;20489;-75
2022/08/31 11:11:16;;;;;;;13.30;10.17;;;22.80;28.40;;;;;;4971844;28;20489;-75
2022/08/31 11:13:59;;;;;;;16.33;11.67;;;22.90;28.30;;;;;;4968439;28;20465;-74
2022/08/31 11:16:49;;;;;;;12.10;10.83;;;23.00;28.00;;;;;;4965066;28;20466;-74
2022/08/31 11:19:49;;;;;;;13.63;11.03;;;23.20;27.30;;;;;;4964950;28;20468;-71
2022/08/31 11:22:43;;;;;;;12.10;10.80;;;23.40;26.20;;;;;;4964457;28;20485;-73
2022/08/31 11:25:35;;;;;;;14.20;10.80;;;23.70;26.30;;;;;;4965456;28;20461;-75
2022/08/31 11:28:07;;;;;;;12.33;10.63;;;24.00;25.60;;;;;;4964473;28;20477;-77
2022/08/31 11:30:36;;;;;;;11.17;9.60;;;24.30;24.00;;;;;;4967303;28;20493;-76
2022/08/31 11:33:10;;;;;;;11.23;9.83;;;24.40;23.40;;;;;;4967939;28;20461;-75
2022/08/31 11:36:00;;;;;;;14.67;11.00;;;24.50;22.50;;;;;;4966620;28;20462;-76
2022/08/31 11:38:51;;;;;;;15.07;9.97;;;24.60;21.40;;;;;;4966514;28;20465;-76
2022/08/31 11:41:43;;;;;;;15.20;10.57;;;24.60;20.90;;;;;;4968426;28;20525;-75
2022/08/31 11:44:32;;;;;;;13.60;11.80;;;24.60;21.00;;;;;;4965967;28;20582;-75
2022/08/31 11:47:05;;;;;;;12.00;10.53;;;24.60;21.00;;;;;;4967159;28;21285;-74
2022/08/31 11:49:54;;;;;;;13.50;9.97;;;24.60;20.70;;;;;;4964735;28;20523;-74
2022/08/31 11:52:40;;;;;;;14.40;10.33;;;24.50;20.80;;;;;;4964231;28;20607;-71
2022/08/31 11:55:27;;;;;;;15.67;10.67;;;24.50;21.10;;;;;;4946071;28;20462;-69
2022/08/31 11:58:18;;;;;;;12.77;9.60;;;24.50;21.60;;;;;;4945248;28;20463;-69
2022/08/31 12:00:52;;;;;;;16.13;11.43;;;24.60;21.00;;;;;;4947268;28;20554;-68
2022/08/31 12:03:51;;;;;;;13.37;10.43;;;24.70;20.70;;;;;;5048665;22;20547;-63
2022/08/31 12:07:06;;;;;;;14.87;11.80;;;24.90;20.60;;;;;;5023609;28;20944;-62
2022/08/31 12:10:32;;;;;;;12.17;10.30;;;25.10;20.00;;;;;;5080470;28;21135;-62
2022/08/31 12:13:29;;;;;;;13.93;11.33;;;25.30;19.00;;;;;;5071774;28;20519;-66
2022/08/31 12:16:36;;;;;;;13.33;11.47;;;25.20;18.80;;;;;;5060076;28;20473;-63
2022/08/31 12:25:21;;;;;;;12.23;10.93;;;24.80;19.20;;;;;;5063150;28;20460;-62
2022/08/31 12:28:03;;;;;;;13.43;10.97;;;24.90;19.40;;;;;;5060374;28;20477;-62
2022/08/31 12:30:30;;;;;;;14.00;11.10;;;25.10;19.00;;;;;;5059527;28;20461;-66
2022/08/31 12:33:02;;;;;;;11.57;10.37;;;25.30;18.80;;;;;;5076298;28;20593;-63
2022/08/31 12:35:31;;;;;;;13.50;10.73;;;25.40;18.20;;;;;;5082460;28;20460;-63
2022/08/31 12:38:00;;;;;;;12.13;10.20;;;25.60;18.10;;;;;;5080906;28;20964;-63
2022/08/31 12:40:28;;;;;;;11.43;9.47;;;25.70;17.40;;;;;;5081058;28;20459;-62
2022/08/31 12:43:01;;;;;;;12.13;10.83;;;25.70;16.20;;;;;;5077226;28;20477;-65
2022/08/31 12:45:49;;;;;;;11.50;9.57;;;25.90;16.20;;;;;;5083126;28;20454;-65
2022/08/31 12:48:29;;;;;;;12.27;9.40;;;26.10;16.80;;;;;;5081417;28;20484;-64
2022/08/31 12:51:01;;;;;;;14.03;10.40;;;26.40;15.90;;;;;;5084806;28;20466;-64
2022/08/31 12:53:59;;;;;;;13.13;10.30;;;26.30;14.00;;;;;;5082305;28;20495;-63
2022/08/31 12:56:36;;;;;;;11.90;9.20;;;26.30;15.40;;;;;;5067568;28;20460;-62
2022/08/31 12:59:19;;;;;;;13.20;8.73;;;26.20;15.30;;;;;;5081183;28;20452;-62
2022/08/31 13:01:49;;;;;;;13.23;9.47;;;26.00;15.80;;;;;;5085675;28;20495;-63
2022/08/31 13:04:17;;;;;;;12.20;9.17;;;25.80;16.00;;;;;;5082056;28;20464;-68
2022/08/31 13:06:47;;;;;;;10.90;8.90;;;25.70;16.00;;;;;;5074760;28;20985;-64
2022/08/31 13:09:25;;;;;;;12.20;9.03;;;25.50;15.80;;;;;;5081104;28;20842;-64
2022/08/31 13:11:54;;;;;;;10.03;8.70;;;25.30;16.10;;;;;;5075291;28;20828;-63